Time;durP1;ratioP1;P1;durP2;ratioP2;P2;SDS_P1;SDS_P2;PMS_P1;PMS_P2;Temp;Humidity;BMP_temperature;BMP_pressure;BME280_temperature;BME280_humidity;BME280_pressure;Samples;Min_cycle;Max_cycle;Signal;HPM_P1;HPM_P2
2021/08/05 00:00:42;;;;;;;;;10.50;7.25;;;;;18.73;71.30;100858.59;5071364;28;45704;-66
2021/08/05 00:03:07;;;;;;;;;6.75;6.75;;;;;18.74;71.64;100854.06;5069666;27;45446;-66
2021/08/05 00:05:33;;;;;;;;;4.75;4.75;;;;;18.75;71.67;100858.41;5068730;28;46592;-65
2021/08/05 00:07:58;;;;;;;;;7.75;5.50;;;;;18.76;71.68;100857.41;5068447;27;45437;-65
2021/08/05 00:10:24;;;;;;;;;9.25;6.75;;;;;18.79;71.25;100857.84;5070016;27;45459;-64
2021/08/05 00:12:49;;;;;;;;;6.50;6.50;;;;;18.80;71.98;100854.13;5070741;27;45429;-64
2021/08/05 00:15:15;;;;;;;;;7.25;6.50;;;;;18.81;71.97;100854.94;5068162;27;45604;-66
2021/08/05 00:17:40;;;;;;;;;7.50;7.00;;;;;18.82;71.35;100856.63;5067418;27;45393;-65
2021/08/05 00:20:07;;;;;;;;;7.00;5.75;;;;;18.81;71.97;100836.19;5068286;27;45607;-64
2021/08/05 00:22:32;;;;;;;;;7.50;5.75;;;;;18.81;71.49;100833.53;5067762;27;45564;-67
2021/08/05 00:24:58;;;;;;;;;5.25;5.00;;;;;18.78;71.46;100833.94;5070875;28;45487;-65
2021/08/05 00:27:23;;;;;;;;;6.75;5.75;;;;;18.72;71.45;100827.50;5068965;27;46362;-67
2021/08/05 00:29:49;;;;;;;;;8.75;7.00;;;;;18.73;71.92;100817.63;5067967;27;45431;-64
2021/08/05 00:32:14;;;;;;;;;6.50;5.50;;;;;18.70;72.35;100827.69;5067555;27;45502;-65
2021/08/05 00:34:40;;;;;;;;;6.00;6.00;;;;;18.70;72.27;100821.53;5068299;27;45476;-65
2021/08/05 00:37:05;;;;;;;;;5.25;5.25;;;;;18.69;72.83;100820.69;5084228;27;45532;-66
2021/08/05 00:39:31;;;;;;;;;7.00;7.00;;;;;18.69;71.89;100822.53;5069689;28;45603;-63
2021/08/05 00:41:56;;;;;;;;;7.25;6.50;;;;;18.69;71.86;100817.19;5066923;27;45472;-65
2021/08/05 00:44:22;;;;;;;;;7.75;6.25;;;;;18.68;71.61;100816.34;5067859;27;45501;-66
2021/08/05 00:46:47;;;;;;;;;7.50;5.75;;;;;18.69;71.39;100814.50;5066980;27;45407;-66
2021/08/05 00:49:13;;;;;;;;;8.50;7.50;;;;;18.69;71.33;100822.53;5068193;27;45547;-66
2021/08/05 00:51:39;;;;;;;;;9.50;8.00;;;;;18.68;71.47;100819.03;5069649;27;45584;-65
2021/08/05 00:54:07;;;;;;;;;6.50;5.25;;;;;18.68;72.02;100823.56;5067937;27;45470;-65
2021/08/05 00:56:32;;;;;;;;;6.50;6.00;;;;;18.67;72.49;100817.41;5068188;27;45650;-65
2021/08/05 00:58:58;;;;;;;;;7.50;6.25;;;;;18.66;72.08;100815.72;5067975;27;45617;-67
2021/08/05 01:01:31;;;;;;;;;9.00;8.25;;;;;18.66;72.55;100810.38;5066845;27;45485;-66
2021/08/05 01:03:57;;;;;;;;;8.50;7.75;;;;;18.66;73.00;100818.41;5070934;28;45443;-66
2021/08/05 01:06:25;;;;;;;;;6.75;6.75;;;;;18.67;72.95;100821.94;5066335;27;45656;-66
2021/08/05 01:09:01;;;;;;;;;7.50;5.75;;;;;18.66;73.20;100820.25;5068600;27;45531;-65
2021/08/05 01:11:34;;;;;;;;;8.25;7.00;;;;;18.66;73.40;100815.72;5068117;27;45547;-65
2021/08/05 01:14:04;;;;;;;;;7.25;7.25;;;;;18.65;73.36;100808.75;5061652;27;46261;-64
2021/08/05 01:16:32;;;;;;;;;9.75;8.75;;;;;18.66;72.96;100810.38;5065708;27;45673;-66
2021/08/05 01:19:37;;;;;;;;;8.00;7.25;;;;;18.66;72.92;100804.19;5066430;28;45429;-67
2021/08/05 01:22:20;;;;;;;;;7.25;7.25;;;;;18.67;72.87;100789.81;5067319;27;45521;-64
2021/08/05 01:25:06;;;;;;;;;10.50;7.75;;;;;18.67;73.77;100795.97;5069033;28;45678;-64
2021/08/05 01:27:33;;;;;;;;;7.75;7.00;;;;;18.65;73.87;100791.84;5067635;28;45603;-67
2021/08/05 01:30:00;;;;;;;;;8.00;8.00;;;;;18.62;74.43;100803.78;5067435;27;46457;-66
2021/08/05 01:32:26;;;;;;;;;10.00;7.25;;;;;18.59;73.87;100798.81;5095550;27;45671;-64
2021/08/05 01:34:54;;;;;;;;;6.25;5.50;;;;;18.58;73.65;100797.19;5064774;27;45511;-66
2021/08/05 01:37:19;;;;;;;;;7.25;6.75;;;;;18.58;73.50;100802.53;5067338;27;45374;-67
2021/08/05 01:39:46;;;;;;;;;9.25;8.50;;;;;18.61;73.87;100802.13;5069976;27;45396;-64
2021/08/05 01:42:12;;;;;;;;;7.00;6.50;;;;;18.63;74.68;100805.44;5066449;27;45559;-67
2021/08/05 01:44:42;;;;;;;;;8.25;6.50;;;;;18.65;74.32;100797.22;5067096;27;45618;-66
2021/08/05 01:47:09;;;;;;;;;7.50;5.75;;;;;18.66;73.61;100805.03;5066740;27;45583;-66
2021/08/05 01:49:35;;;;;;;;;10.25;9.75;;;;;18.68;73.60;100789.59;5068552;27;45549;-65
2021/08/05 01:52:01;;;;;;;;;7.75;6.75;;;;;18.70;73.72;100790.22;5069368;27;45452;-65
2021/08/05 01:54:27;;;;;;;;;8.00;7.00;;;;;18.72;73.75;100786.50;5068022;27;45678;-64
2021/08/05 01:56:53;;;;;;;;;6.50;6.50;;;;;18.73;73.66;100780.13;5060545;27;45545;-65
2021/08/05 01:59:18;;;;;;;;;11.00;9.00;;;;;18.72;74.10;100773.97;5065412;27;45668;-65
2021/08/05 02:01:43;;;;;;;;;6.25;5.50;;;;;18.72;73.25;100768.63;5064991;27;45754;-65
2021/08/05 02:04:18;;;;;;;;;10.00;9.25;;;;;18.73;72.84;100766.75;5067158;27;45527;-64
2021/08/05 02:06:58;;;;;;;;;8.25;6.75;;;;;18.74;72.95;100763.84;5068867;28;45495;-67
2021/08/05 02:09:32;;;;;;;;;9.75;6.75;;;;;18.75;72.77;100768.19;5066895;27;45650;-63
2021/08/05 02:11:58;;;;;;;;;8.75;6.50;;;;;18.75;72.80;100762.03;5067118;27;45550;-64
2021/08/05 02:14:28;;;;;;;;;8.50;6.75;;;;;18.75;73.45;100765.53;5067047;27;45500;-65
2021/08/05 02:16:54;;;;;;;;;7.50;7.25;;;;;18.74;73.90;100749.66;5065070;27;45567;-67
2021/08/05 02:19:20;;;;;;;;;8.75;8.50;;;;;18.72;72.84;100754.38;5066487;27;45488;-65
2021/08/05 02:21:46;;;;;;;;;8.00;8.00;;;;;18.67;73.03;100747.78;5069642;28;45583;-64
2021/08/05 02:24:16;;;;;;;;;8.00;7.50;;;;;18.67;72.78;100752.34;5067844;27;46547;-66
2021/08/05 02:26:41;;;;;;;;;10.50;8.00;;;;;18.64;72.73;100753.56;5063534;27;48166;-65
2021/08/05 02:29:08;;;;;;;;;10.50;9.50;;;;;18.63;72.85;100757.25;5065917;27;45527;-66
2021/08/05 02:31:37;;;;;;;;;10.75;8.25;;;;;18.62;73.21;100749.41;5067892;27;45527;-64
2021/08/05 02:34:05;;;;;;;;;9.50;7.25;;;;;18.59;72.95;100753.31;5067805;27;46074;-65
2021/08/05 02:36:30;;;;;;;;;10.50;9.25;;;;;18.56;73.09;100750.22;5068403;28;45433;-66
2021/08/05 02:38:56;;;;;;;;;14.75;9.50;;;;;18.54;73.18;100749.59;5067965;27;45530;-67
2021/08/05 02:41:22;;;;;;;;;9.50;9.00;;;;;18.51;73.13;100745.47;5068685;27;45411;-65
2021/08/05 02:43:48;;;;;;;;;7.00;6.25;;;;;18.50;73.17;100745.69;5070700;27;45593;-64
2021/08/05 02:46:14;;;;;;;;;9.25;7.50;;;;;18.48;73.04;100748.56;5071162;27;45459;-65
2021/08/05 02:48:40;;;;;;;;;9.00;8.00;;;;;18.47;73.62;100746.91;5072630;27;45423;-65
2021/08/05 02:51:06;;;;;;;;;7.50;4.50;;;;;18.45;73.41;100744.44;5069469;27;45571;-64
2021/08/05 02:53:32;;;;;;;;;7.25;7.25;;;;;18.43;73.68;100746.47;5069019;27;46436;-66
2021/08/05 02:55:58;;;;;;;;;6.50;6.50;;;;;18.40;73.51;100744.22;5068999;27;45662;-65
2021/08/05 02:58:24;;;;;;;;;9.00;8.00;;;;;18.40;73.25;100741.53;5069161;27;45629;-66
2021/08/05 03:00:49;;;;;;;;;8.25;6.00;;;;;18.39;73.86;100736.38;5072192;27;45440;-65
2021/08/05 03:03:23;;;;;;;;;7.75;5.50;;;;;18.37;73.05;100733.06;5069443;27;46490;-67
2021/08/05 03:05:51;;;;;;;;;8.75;7.25;;;;;18.37;73.12;100736.59;5063813;28;45801;-65
2021/08/05 03:08:16;;;;;;;;;6.50;6.50;;;;;18.36;73.54;100734.94;5069746;27;45642;-65
2021/08/05 03:10:42;;;;;;;;;8.25;7.25;;;;;18.35;73.74;100727.94;5068839;28;45794;-66
2021/08/05 03:13:07;;;;;;;;;6.50;5.50;;;;;18.36;73.53;100726.09;5068675;27;47552;-66
2021/08/05 03:15:32;;;;;;;;;9.75;7.75;;;;;18.36;73.51;100728.75;5070700;27;45424;-66
2021/08/05 03:17:58;;;;;;;;;10.00;8.50;;;;;18.34;73.50;100726.28;5070059;27;46101;-67
2021/08/05 03:20:23;;;;;;;;;9.25;8.75;;;;;18.32;73.46;100722.97;5069535;27;45548;-67
2021/08/05 03:22:49;;;;;;;;;18.25;13.25;;;;;18.32;73.19;100722.16;5067654;27;46599;-65
2021/08/05 03:25:14;;;;;;;;;15.50;12.75;;;;;18.33;73.94;100716.59;5070796;27;45679;-65
2021/08/05 03:27:40;;;;;;;;;14.75;12.25;;;;;18.35;73.94;100716.41;5072368;27;45491;-63
2021/08/05 03:30:08;;;;;;;;;20.25;13.00;;;;;18.35;73.45;100716.41;5069744;27;45646;-64
2021/08/05 03:32:33;;;;;;;;;14.25;10.00;;;;;18.30;73.92;100716.16;5068609;27;45583;-65
2021/08/05 03:34:59;;;;;;;;;14.00;11.25;;;;;18.24;73.94;100710.59;5068808;27;45503;-66
2021/08/05 03:37:25;;;;;;;;;16.25;10.50;;;;;18.21;73.90;100711.00;5069845;27;45440;-65
2021/08/05 03:39:50;;;;;;;;;13.00;11.25;;;;;18.21;74.33;100710.19;5071570;28;45519;-65
2021/08/05 03:42:15;;;;;;;;;14.75;10.75;;;;;18.22;74.30;100710.00;5067694;27;47302;-67
2021/08/05 03:44:41;;;;;;;;;13.50;12.00;;;;;18.22;74.82;100710.00;5069502;27;45591;-64
2021/08/05 03:47:06;;;;;;;;;13.50;12.25;;;;;18.21;74.18;100702.97;5068793;27;45688;-63
2021/08/05 03:49:32;;;;;;;;;16.00;13.75;;;;;18.18;74.65;100694.53;5070743;27;45495;-66
2021/08/05 03:51:57;;;;;;;;;17.25;13.25;;;;;18.16;74.47;100697.41;5071128;27;45567;-64
2021/08/05 03:54:22;;;;;;;;;12.00;12.00;;;;;18.14;74.33;100704.81;5070222;27;45420;-63
2021/08/05 03:56:48;;;;;;;;;14.25;10.00;;;;;18.12;74.62;100703.34;5067605;27;45512;-66
2021/08/05 03:59:13;;;;;;;;;11.00;10.00;;;;;18.12;74.76;100719.41;5069017;27;45506;-65
2021/08/05 04:01:39;;;;;;;;;11.75;11.25;;;;;18.11;75.10;100710.56;5068760;27;46261;-63
2021/08/05 04:04:04;;;;;;;;;7.25;7.25;;;;;18.11;75.69;100712.41;5070496;27;45548;-64
2021/08/05 04:06:29;;;;;;;;;9.00;9.00;;;;;18.09;75.50;100712.59;5070560;27;45842;-65
2021/08/05 04:08:55;;;;;;;;;10.50;8.75;;;;;18.11;75.44;100709.72;5069352;27;45580;-64
2021/08/05 04:11:20;;;;;;;;;8.50;8.50;;;;;18.12;75.61;100706.84;5067914;27;46550;-63
2021/08/05 04:13:46;;;;;;;;;7.00;6.75;;;;;18.12;75.57;100706.84;5067887;27;45634;-64
2021/08/05 04:16:11;;;;;;;;;6.00;6.00;;;;;18.11;75.53;100707.88;5068207;27;45482;-66
2021/08/05 04:18:36;;;;;;;;;9.50;7.00;;;;;18.08;75.89;100707.47;5068749;27;45500;-66
2021/08/05 04:21:02;;;;;;;;;7.50;7.50;;;;;18.05;76.06;100701.50;5067021;27;45776;-66
2021/08/05 04:23:27;;;;;;;;;8.75;8.25;;;;;18.02;75.79;100709.06;5069081;27;45471;-65
2021/08/05 04:25:52;;;;;;;;;8.50;7.25;;;;;17.99;76.14;100712.16;5068879;27;47114;-67
2021/08/05 04:28:23;;;;;;;;;10.75;9.00;;;;;17.97;75.75;100712.34;5066920;27;45665;-65
2021/08/05 04:30:48;;;;;;;;;8.25;6.25;;;;;17.97;76.08;100709.66;5070219;27;46465;-65
2021/08/05 04:33:14;;;;;;;;;9.50;7.50;;;;;17.96;76.17;100702.66;5067286;27;45515;-68
2021/08/05 04:35:39;;;;;;;;;10.00;9.50;;;;;17.96;76.59;100705.34;5067714;27;45447;-66
2021/08/05 04:38:06;;;;;;;;;9.50;7.75;;;;;17.94;76.05;100704.72;5066442;27;45508;-67
2021/08/05 04:40:31;;;;;;;;;10.00;9.75;;;;;17.94;76.24;100704.72;5064305;27;46656;-67
2021/08/05 04:42:58;;;;;;;;;13.75;10.75;;;;;17.97;76.04;100701.63;5069899;28;45549;-66
2021/08/05 04:45:23;;;;;;;;;6.75;6.75;;;;;17.99;76.03;100706.78;5061786;28;45642;-64
2021/08/05 04:47:57;;;;;;;;;11.00;9.00;;;;;18.02;76.34;100701.03;5067664;27;45605;-67
2021/08/05 04:50:26;;;;;;;;;10.00;9.00;;;;;18.03;76.15;100705.38;5067014;27;45686;-68
2021/08/05 04:52:51;;;;;;;;;9.50;8.50;;;;;18.05;76.46;100703.31;5082923;27;45457;-67
2021/08/05 04:55:17;;;;;;;;;8.75;5.75;;;;;18.07;76.20;100698.59;5067673;27;45469;-66
2021/08/05 04:57:47;;;;;;;;;8.25;7.75;;;;;18.09;76.51;100699.22;5070902;27;45397;-67
2021/08/05 05:00:13;;;;;;;;;10.50;8.00;;;;;18.10;76.07;100692.88;5066258;27;46369;-65
2021/08/05 05:02:38;;;;;;;;;9.75;8.00;;;;;18.12;76.54;100695.31;5067683;27;45660;-66
2021/08/05 05:05:04;;;;;;;;;7.75;7.75;;;;;18.14;76.48;100702.13;5068024;27;45574;-64
2021/08/05 05:07:29;;;;;;;;;9.00;6.50;;;;;18.17;76.46;100711.59;5068109;27;45477;-65
2021/08/05 05:09:55;;;;;;;;;8.50;8.50;;;;;18.19;76.61;100713.06;5070325;27;46334;-66
2021/08/05 05:12:20;;;;;;;;;7.25;7.25;;;;;18.21;77.05;100716.34;5067064;27;45476;-64
2021/08/05 05:14:46;;;;;;;;;7.75;7.75;;;;;18.25;76.67;100720.28;5068166;27;45574;-65
2021/08/05 05:17:11;;;;;;;;;8.75;6.75;;;;;18.26;76.40;100719.25;5067021;27;45408;-66
2021/08/05 05:19:36;;;;;;;;;7.50;7.50;;;;;18.29;76.39;100709.19;5067140;27;46224;-64
2021/08/05 05:22:02;;;;;;;;;8.75;7.50;;;;;18.32;76.32;100709.59;5068481;28;45463;-66
2021/08/05 05:24:27;;;;;;;;;8.25;8.00;;;;;18.35;76.50;100711.06;5067548;27;45482;-63
2021/08/05 05:26:53;;;;;;;;;7.75;6.75;;;;;18.37;76.62;100714.34;5068889;27;45505;-66
2021/08/05 05:29:19;;;;;;;;;8.00;8.00;;;;;18.39;76.35;100712.28;5066585;27;46297;-64
2021/08/05 05:31:44;;;;;;;;;9.00;8.25;;;;;18.41;76.54;100715.59;5067793;27;45548;-63
2021/08/05 05:34:10;;;;;;;;;10.00;6.25;;;;;18.42;76.30;100711.88;5069391;27;45549;-66
2021/08/05 05:36:35;;;;;;;;;7.75;7.00;;;;;18.45;76.08;100719.53;5068017;27;45487;-68
2021/08/05 05:39:00;;;;;;;;;9.00;8.25;;;;;18.48;76.54;100719.13;5061559;27;46835;-64
2021/08/05 05:41:26;;;;;;;;;10.00;7.75;;;;;18.49;76.15;100712.72;5065972;28;45571;-67
2021/08/05 05:43:52;;;;;;;;;8.50;7.00;;;;;18.52;75.48;100716.84;5067873;27;45506;-65
2021/08/05 05:46:17;;;;;;;;;7.25;6.50;;;;;18.52;75.72;100719.53;5066326;28;45582;-68
2021/08/05 05:48:42;;;;;;;;;8.25;7.00;;;;;18.53;75.41;100714.00;5071301;27;46015;-65
2021/08/05 05:51:08;;;;;;;;;10.00;7.00;;;;;18.55;75.34;100713.81;5068546;27;45456;-65
2021/08/05 05:53:33;;;;;;;;;8.50;8.50;;;;;18.60;75.21;100714.84;5066460;27;45487;-65
2021/08/05 05:55:58;;;;;;;;;12.50;8.75;;;;;18.60;73.93;100714.03;5067633;27;45643;-63
2021/08/05 05:58:24;;;;;;;;;9.25;8.00;;;;;18.64;73.97;100716.09;5066648;27;46379;-64
2021/08/05 06:00:49;;;;;;;;;7.25;6.25;;;;;18.69;74.36;100723.50;5067611;28;45417;-65
2021/08/05 06:03:16;;;;;;;;;10.25;9.00;;;;;18.72;73.57;100719.56;5066846;27;45469;-63
2021/08/05 06:05:41;;;;;;;;;9.25;8.50;;;;;18.76;73.76;100731.56;5067152;27;45398;-64
2021/08/05 06:08:07;;;;;;;;;6.00;6.00;;;;;18.82;74.48;100733.44;5066151;27;45520;-66
2021/08/05 06:10:32;;;;;;;;;10.75;8.50;;;;;18.87;73.11;100737.16;5065316;27;45543;-65
2021/08/05 06:12:58;;;;;;;;;12.75;9.50;;;;;18.90;72.53;100735.94;5083829;27;45511;-64
2021/08/05 06:15:23;;;;;;;;;12.75;10.00;;;;;18.93;73.47;100743.53;5098270;27;45431;-63
2021/08/05 06:17:48;;;;;;;;;10.75;7.50;;;;;18.95;73.21;100740.69;5068425;28;48146;-68
2021/08/05 06:20:17;;;;;;;;;12.50;10.75;;;;;18.96;73.29;100742.31;5068446;28;45522;-67
2021/08/05 06:22:44;;;;;;;;;10.25;9.25;;;;;18.96;73.61;100737.78;5069445;27;45493;-66
2021/08/05 06:25:10;;;;;;;;;8.75;8.75;;;;;18.95;73.26;100736.13;5067016;27;45576;-67
2021/08/05 06:27:36;;;;;;;;;10.50;9.25;;;;;18.95;72.81;100744.16;5073514;27;46388;-70
2021/08/05 06:30:03;;;;;;;;;11.75;8.25;;;;;18.97;73.15;100747.47;5070140;27;45778;-65
2021/08/05 06:32:29;;;;;;;;;10.00;9.00;;;;;18.95;73.23;100749.53;5066420;27;45523;-64
2021/08/05 06:34:54;;;;;;;;;8.00;7.25;;;;;18.96;72.85;100745.81;5064819;27;45565;-64
2021/08/05 06:37:19;;;;;;;;;9.25;8.25;;;;;18.96;72.96;100750.34;5064732;27;46056;-67
2021/08/05 06:39:45;;;;;;;;;9.75;8.25;;;;;18.98;73.27;100748.28;5067260;27;45490;-66
2021/08/05 06:42:10;;;;;;;;;11.50;10.25;;;;;18.99;72.96;100740.06;5063779;27;45555;-68
2021/08/05 06:44:37;;;;;;;;;8.00;8.00;;;;;19.02;72.83;100744.19;5065984;27;45966;-63
2021/08/05 06:47:04;;;;;;;;;13.75;10.75;;;;;19.02;73.45;100739.66;5063930;27;47343;-65
2021/08/05 06:49:29;;;;;;;;;14.50;11.25;;;;;19.06;73.30;100740.06;5062250;27;45435;-67
2021/08/05 06:51:55;;;;;;;;;8.75;8.75;;;;;19.09;72.85;100735.13;5097552;27;45437;-66
2021/08/05 06:54:20;;;;;;;;;12.25;8.00;;;;;19.16;73.12;100734.28;5065321;27;45556;-66
2021/08/05 06:56:45;;;;;;;;;9.50;9.50;;;;;19.21;71.50;100726.44;5064409;27;45665;-67
2021/08/05 06:59:13;;;;;;;;;8.75;8.50;;;;;19.27;72.19;100728.31;5065465;27;45505;-63
2021/08/05 07:01:38;;;;;;;;;11.25;8.75;;;;;19.34;73.05;100732.66;5061312;27;45475;-67
2021/08/05 07:04:04;;;;;;;;;11.00;10.25;;;;;19.41;72.61;100737.16;5070098;27;45529;-68
2021/08/05 07:06:29;;;;;;;;;8.50;8.00;;;;;19.50;72.17;100733.25;5062426;27;48215;-69
2021/08/05 07:08:55;;;;;;;;;12.50;9.25;;;;;19.53;71.69;100730.16;5066089;27;45764;-64
2021/08/05 07:11:20;;;;;;;;;12.00;11.25;;;;;19.58;71.66;100732.19;5066785;27;45913;-67
2021/08/05 07:13:46;;;;;;;;;16.25;12.00;;;;;19.63;71.28;100729.72;5065113;27;45733;-68
2021/08/05 07:16:13;;;;;;;;;15.25;11.50;;;;;19.65;70.59;100741.88;5047550;28;46299;-66
2021/08/05 07:18:38;;;;;;;;;11.50;10.50;;;;;19.72;70.93;100736.53;5052212;28;45601;-66
2021/08/05 07:21:04;;;;;;;;;15.50;11.75;;;;;19.82;69.71;100738.78;5056792;28;45453;-68
2021/08/05 07:23:29;;;;;;;;;12.25;10.50;;;;;19.85;68.98;100733.81;5052832;28;45619;-63
2021/08/05 07:25:54;;;;;;;;;13.75;11.75;;;;;19.89;69.64;100735.06;5050431;28;46171;-64
2021/08/05 07:28:20;;;;;;;;;12.75;11.25;;;;;19.96;69.82;100735.88;5049599;28;45375;-65
2021/08/05 07:30:46;;;;;;;;;13.00;11.50;;;;;20.08;68.88;100730.69;5048889;28;45487;-63
2021/08/05 07:33:11;;;;;;;;;9.00;7.50;;;;;20.21;68.59;100732.47;5050757;28;45432;-66
2021/08/05 07:35:37;;;;;;;;;12.00;12.00;;;;;20.36;68.47;100737.56;5052346;28;45668;-67
2021/08/05 07:38:03;;;;;;;;;14.00;11.50;;;;;20.54;68.15;100734.19;5050909;28;46102;-66
2021/08/05 07:40:28;;;;;;;;;12.00;8.75;;;;;20.76;67.46;100732.81;5050054;28;45566;-66
2021/08/05 07:42:54;;;;;;;;;14.00;11.00;;;;;21.07;67.10;100741.09;5049755;28;45556;-65
2021/08/05 07:45:20;;;;;;;;;10.25;8.00;;;;;21.38;66.73;100741.03;5050843;28;45815;-66
2021/08/05 07:47:45;;;;;;;;;11.00;10.00;;;;;21.64;65.41;100747.25;5049285;28;45549;-68
2021/08/05 07:50:14;;;;;;;;;11.75;10.50;;;;;21.84;64.78;100737.09;5049886;28;45600;-64
2021/08/05 07:52:39;;;;;;;;;16.75;10.25;;;;;21.97;64.96;100730.75;5047414;28;45593;-65
2021/08/05 07:55:06;;;;;;;;;15.00;10.25;;;;;22.11;63.92;100734.94;5049820;28;45505;-66
2021/08/05 07:57:32;;;;;;;;;11.00;10.00;;;;;22.21;63.49;100733.63;5047905;28;45461;-65
2021/08/05 07:59:59;;;;;;;;;12.75;9.50;;;;;22.27;62.73;100732.69;5047656;28;45651;-64
2021/08/05 08:02:25;;;;;;;;;11.75;10.00;;;;;22.30;63.05;100734.94;5047144;28;45830;-65
2021/08/05 08:04:50;;;;;;;;;13.00;10.75;;;;;22.41;63.94;100730.66;5047338;28;46373;-66
2021/08/05 08:07:16;;;;;;;;;10.25;9.25;;;;;22.54;63.00;100723.22;5047713;28;45768;-67
2021/08/05 08:09:42;;;;;;;;;15.25;11.00;;;;;22.63;61.55;100720.22;5049870;28;45536;-68
2021/08/05 08:12:07;;;;;;;;;12.00;11.00;;;;;22.86;60.81;100722.97;5047788;28;45514;-67
2021/08/05 08:14:33;;;;;;;;;10.75;9.00;;;;;23.11;61.33;100724.69;5061158;27;46948;-64
2021/08/05 08:16:59;;;;;;;;;13.75;10.25;;;;;23.35;60.18;100729.03;5069331;27;45498;-64
2021/08/05 08:19:24;;;;;;;;;12.25;10.75;;;;;23.61;58.71;100722.38;5071016;27;45534;-64
2021/08/05 08:21:50;;;;;;;;;10.50;8.50;;;;;23.85;59.43;100716.13;5071084;27;45479;-66
2021/08/05 08:24:15;;;;;;;;;12.75;10.25;;;;;24.04;58.31;100718.44;5077787;27;45500;-67
2021/08/05 08:26:41;;;;;;;;;11.50;11.00;;;;;24.15;58.10;100715.94;5066804;27;45528;-72
2021/08/05 08:29:07;;;;;;;;;11.00;9.50;;;;;24.27;57.64;100713.19;5045296;27;45464;-66
2021/08/05 08:31:32;;;;;;;;;9.25;9.25;;;;;24.57;57.33;100716.50;5047428;28;46011;-67
2021/08/05 08:33:58;;;;;;;;;12.00;9.50;;;;;25.11;56.10;100714.16;5070085;27;46229;-64
2021/08/05 08:36:23;;;;;;;;;11.75;9.00;;;;;25.55;55.08;100710.81;5065158;27;45763;-66
2021/08/05 08:38:48;;;;;;;;;8.50;7.75;;;;;25.81;54.52;100706.53;5065992;27;45731;-73
2021/08/05 08:41:14;;;;;;;;;9.75;9.25;;;;;25.91;52.77;100706.69;5069064;27;45480;-64
2021/08/05 08:43:39;;;;;;;;;12.00;10.00;;;;;25.97;53.33;100707.59;5064026;27;45643;-68
2021/08/05 08:46:08;;;;;;;;;10.25;9.00;;;;;26.09;53.13;100710.19;5069571;27;46103;-66
2021/08/05 08:48:34;;;;;;;;;11.75;8.00;;;;;26.27;53.31;100707.13;5070076;27;45630;-67
2021/08/05 08:51:01;;;;;;;;;12.00;11.00;;;;;26.76;52.13;100703.56;5071852;27;45383;-70
2021/08/05 08:53:33;;;;;;;;;12.50;10.50;;;;;27.14;51.03;100699.78;5062726;27;45694;-69
2021/08/05 08:56:00;;;;;;;;;7.25;7.00;;;;;27.31;51.30;100707.00;5047610;27;46110;-66
2021/08/05 08:58:26;;;;;;;;;3363.00;3363.00;;;;;27.27;49.85;100703.16;5068820;27;45612;-67
2021/08/05 09:00:51;;;;;;;;;14.25;10.75;;;;;27.17;50.18;100715.53;5069014;27;45488;-66
2021/08/05 09:03:17;;;;;;;;;685.50;685.00;;;;;27.10;50.63;100698.69;5065800;27;45610;-64
2021/08/05 09:05:44;;;;;;;;;12.00;10.50;;;;;27.03;49.45;100709.75;5066318;27;45618;-67
2021/08/05 09:08:09;;;;;;;;;11.50;10.75;;;;;26.75;48.98;100705.44;5062406;27;45478;-73
2021/08/05 09:10:35;;;;;;;;;11.50;11.25;;;;;26.58;50.84;100707.44;5078089;27;45496;-72
2021/08/05 09:13:02;;;;;;;;;14.25;10.50;;;;;26.47;49.92;100711.13;5079615;27;45486;-70
2021/08/05 09:15:39;;;;;;;;;9.00;9.00;;;;;26.67;51.21;100711.34;5064137;27;45619;-69
2021/08/05 09:18:24;;;;;;;;;10.75;10.50;;;;;26.63;51.24;100712.09;5068039;27;45429;-65
2021/08/05 09:21:23;;;;;;;;;12.00;10.25;;;;;26.07;49.78;100712.31;5066694;27;45618;-70
2021/08/05 09:23:51;;;;;;;;;10.00;10.00;;;;;25.54;50.13;100722.66;5059588;27;46068;-69
2021/08/05 09:26:36;;;;;;;;;12.00;11.00;;;;;25.10;51.19;100720.66;5070363;28;45550;-67
2021/08/05 09:29:09;;;;;;;;;11.50;11.50;;;;;24.69;52.28;100711.03;5081314;27;45611;-69
2021/08/05 09:31:38;;;;;;;;;11.25;10.25;;;;;24.50;53.19;100715.81;5060213;28;45547;-66
2021/08/05 09:34:07;;;;;;;;;13.75;10.50;;;;;24.52;53.07;100718.28;5066561;28;45566;-71
2021/08/05 09:36:34;;;;;;;;;9.75;8.75;;;;;24.68;53.89;100718.34;5084313;27;45512;-72
2021/08/05 09:39:12;;;;;;;;;11.00;10.00;;;;;25.00;52.50;100712.38;5065772;27;45632;-73
2021/08/05 09:42:09;;;;;;;;;9.00;8.50;;;;;25.40;52.09;100716.81;5071247;27;45475;-74
2021/08/05 09:44:34;;;;;;;;;7.25;7.25;;;;;25.44;51.47;100712.53;5068516;28;46473;-68
2021/08/05 09:47:11;;;;;;;;;13.25;10.00;;;;;25.22;51.22;100717.06;5070822;27;45462;-73
2021/08/05 09:49:40;;;;;;;;;10.00;10.00;;;;;25.08;52.18;100711.97;5073439;27;45414;-73
2021/08/05 09:52:09;;;;;;;;;13.00;11.00;;;;;25.11;52.25;100708.75;5074602;28;45492;-69
2021/08/05 09:54:49;;;;;;;;;13.00;11.00;;;;;25.25;51.77;100709.28;5070093;28;46185;-73
2021/08/05 09:57:29;;;;;;;;;11.25;11.25;;;;;25.72;49.80;100705.34;5070998;27;45634;-67
2021/08/05 09:59:57;;;;;;;;;9.50;9.50;;;;;26.61;51.72;100706.97;5072565;27;45389;-73
2021/08/05 10:02:25;;;;;;;;;8.50;8.50;;;;;27.65;49.37;100691.19;5068658;27;46425;-70
2021/08/05 10:04:51;;;;;;;;;13.00;11.00;;;;;28.73;47.26;100693.16;5069366;27;45435;-67
2021/08/05 10:07:17;;;;;;;;;10.00;10.00;;;;;29.75;45.63;100685.97;5069249;27;45499;-74
2021/08/05 10:09:44;;;;;;;;;11.50;10.75;;;;;30.30;36.54;100691.41;5071972;28;45565;-68
2021/08/05 10:12:15;;;;;;;;;8.25;7.75;;;;;30.07;43.40;100682.81;5069451;27;45605;-69
2021/08/05 10:14:43;;;;;;;;;10.75;9.75;;;;;30.28;44.11;100678.06;5070960;28;46621;-74
2021/08/05 10:17:10;;;;;;;;;8.25;8.00;;;;;30.94;41.99;100676.78;5068030;28;45546;-70
2021/08/05 10:19:46;;;;;;;;;5.75;4.25;;;;;30.99;42.26;100675.91;5093163;27;45559;-68
2021/08/05 10:22:14;;;;;;;;;8.50;7.25;;;;;30.61;42.29;100671.03;5076481;27;45560;-69
2021/08/05 10:24:45;;;;;;;;;7.00;6.75;;;;;30.08;42.59;100681.69;5074088;28;45468;-66
2021/08/05 10:27:12;;;;;;;;;6.25;6.00;;;;;29.50;42.65;100665.03;5069120;28;45896;-64
2021/08/05 10:29:39;;;;;;;;;6.25;5.50;;;;;28.83;43.72;100667.88;5070311;27;45498;-72
2021/08/05 10:32:07;;;;;;;;;6.25;5.50;;;;;28.27;44.56;100676.75;5071412;28;45476;-65
2021/08/05 10:34:34;;;;;;;;;9.50;6.00;;;;;27.86;45.58;100673.09;5069635;27;45446;-67
2021/08/05 10:37:04;;;;;;;;;8.00;6.00;;;;;27.61;44.29;100665.63;5072901;27;45543;-65
2021/08/05 10:39:31;;;;;;;;;4.00;4.00;;;;;27.46;44.95;100660.94;5068085;27;45654;-66
2021/08/05 10:42:03;;;;;;;;;4.75;4.00;;;;;27.35;45.39;100661.97;5068460;27;45513;-69
2021/08/05 10:44:29;;;;;;;;;4.00;4.00;;;;;27.61;45.65;100650.16;5067956;27;46129;-65
2021/08/05 10:46:58;;;;;;;;;4.50;4.50;;;;;28.37;45.24;100646.06;5068307;27;45546;-69
2021/08/05 10:49:24;;;;;;;;;5.25;3.50;;;;;29.27;44.86;100642.78;5068950;27;45568;-70
2021/08/05 10:51:50;;;;;;;;;3.25;3.25;;;;;30.14;43.78;100642.44;5069319;28;45513;-69
2021/08/05 10:54:50;;;;;;;;;3.75;3.00;;;;;31.10;42.39;100636.50;5066934;27;45506;-71
2021/08/05 10:57:18;;;;;;;;;4.00;2.50;;;;;31.97;33.96;100635.47;5076513;27;45549;-74
2021/08/05 11:00:09;;;;;;;;;4.25;3.00;;;;;32.29;37.05;100631.97;5069660;27;45588;-70
2021/08/05 11:02:52;;;;;;;;;4.75;4.75;;;;;31.47;36.13;100632.28;5072065;27;45508;-64
2021/08/05 11:05:24;;;;;;;;;2.50;2.50;;;;;30.65;38.33;100644.00;5069879;27;45506;-72
2021/08/05 11:08:08;;;;;;;;;5.25;5.00;;;;;29.74;38.79;100638.81;5068949;27;45497;-73
2021/08/05 11:10:36;;;;;;;;;4.00;4.00;;;;;28.98;36.32;100631.69;5069751;27;45954;-66
2021/08/05 11:13:07;;;;;;;;;3.50;3.50;;;;;28.22;40.64;100627.03;5067852;27;45432;-68
2021/08/05 11:15:33;;;;;;;;;3.00;3.00;;;;;27.82;42.52;100623.16;5086362;27;47769;-73
2021/08/05 11:18:13;;;;;;;;;3.75;3.75;;;;;27.50;43.60;100617.81;5069440;27;45405;-70
2021/08/05 11:21:10;;;;;;;;;4.75;3.50;;;;;27.42;43.69;100616.41;5067812;27;45518;-73